sensor_id;sensor_type;location;lat;lon;timestamp;pressure;altitude;pressure_sealevel;temperature;humidity
38716;BME280;24833;49.324;8.694;2022-09-21T00:01:21;100648.03;;;9.31;99.69
38716;BME280;24833;49.324;8.694;2022-09-21T00:03:58;100648.34;;;9.27;99.16
38716;BME280;24833;49.324;8.694;2022-09-21T00:06:29;100653.00;;;9.25;100.00
38716;BME280;24833;49.324;8.694;2022-09-21T00:08:56;100645.66;;;9.19;98.13
38716;BME280;24833;49.324;8.694;2022-09-21T00:11:27;100653.84;;;9.18;99.48
38716;BME280;24833;49.324;8.694;2022-09-21T00:14:03;100649.66;;;9.15;99.38
38716;BME280;24833;49.324;8.694;2022-09-21T00:16:33;100653.47;;;9.13;99.96
38716;BME280;24833;49.324;8.694;2022-09-21T00:19:01;100660.81;;;9.11;99.60
38716;BME280;24833;49.324;8.694;2022-09-21T00:21:28;100658.47;;;9.08;99.48
38716;BME280;24833;49.324;8.694;2022-09-21T00:23:55;100669.28;;;9.06;99.83
38716;BME280;24833;49.324;8.694;2022-09-21T00:26:25;100658.13;;;9.02;99.56
38716;BME280;24833;49.324;8.694;2022-09-21T00:28:59;100664.78;;;8.98;99.05
38716;BME280;24833;49.324;8.694;2022-09-21T00:31:28;100663.13;;;8.97;99.66
38716;BME280;24833;49.324;8.694;2022-09-21T00:33:57;100658.09;;;8.94;99.57
38716;BME280;24833;49.324;8.694;2022-09-21T00:36:26;100662.78;;;8.92;99.55
38716;BME280;24833;49.324;8.694;2022-09-21T00:38:57;100656.78;;;8.90;99.38
38716;BME280;24833;49.324;8.694;2022-09-21T00:41:29;100664.91;;;8.89;99.62
38716;BME280;24833;49.324;8.694;2022-09-21T00:46:48;100659.91;;;8.78;98.23
38716;BME280;24833;49.324;8.694;2022-09-21T00:49:17;100664.41;;;8.77;99.45
38716;BME280;24833;49.324;8.694;2022-09-21T00:51:46;100663.03;;;8.73;99.39
38716;BME280;24833;49.324;8.694;2022-09-21T00:54:29;100661.84;;;8.67;98.83
38716;BME280;24833;49.324;8.694;2022-09-21T00:56:59;100664.69;;;8.66;99.57
38716;BME280;24833;49.324;8.694;2022-09-21T00:59:31;100658.00;;;8.62;99.37
38716;BME280;24833;49.324;8.694;2022-09-21T01:01:59;100662.66;;;8.60;99.51
38716;BME280;24833;49.324;8.694;2022-09-21T01:04:27;100663.00;;;8.57;99.52
38716;BME280;24833;49.324;8.694;2022-09-21T01:06:56;100661.63;;;8.53;99.60
38716;BME280;24833;49.324;8.694;2022-09-21T01:09:27;100664.47;;;8.51;99.25
38716;BME280;24833;49.324;8.694;2022-09-21T01:15:34;100672.56;;;8.41;98.33
38716;BME280;24833;49.324;8.694;2022-09-21T01:21:21;100671.50;;;8.34;98.33
38716;BME280;24833;49.324;8.694;2022-09-21T01:30:12;100668.78;;;8.26;98.53
38716;BME280;24833;49.324;8.694;2022-09-21T01:35:59;100672.44;;;8.25;99.14
38716;BME280;24833;49.324;8.694;2022-09-21T01:38:32;100669.97;;;8.24;99.73
38716;BME280;24833;49.324;8.694;2022-09-21T01:41:04;100674.44;;;8.23;99.76
38716;BME280;24833;49.324;8.694;2022-09-21T01:43:37;100672.91;;;8.20;99.32
38716;BME280;24833;49.324;8.694;2022-09-21T01:46:12;100674.75;;;8.20;99.24
38716;BME280;24833;49.324;8.694;2022-09-21T01:48:47;100666.94;;;8.18;99.34
38716;BME280;24833;49.324;8.694;2022-09-21T01:51:18;100673.41;;;8.16;99.26
38716;BME280;24833;49.324;8.694;2022-09-21T01:53:51;100677.19;;;8.13;99.56
38716;BME280;24833;49.324;8.694;2022-09-21T01:56:26;100671.38;;;8.10;99.17
38716;BME280;24833;49.324;8.694;2022-09-21T01:59:24;100672.66;;;8.06;98.28
38716;BME280;24833;49.324;8.694;2022-09-21T02:02:02;100668.50;;;8.03;99.12
38716;BME280;24833;49.324;8.694;2022-09-21T02:04:30;100667.69;;;8.03;99.42
38716;BME280;24833;49.324;8.694;2022-09-21T02:07:01;100665.31;;;8.00;99.69
38716;BME280;24833;49.324;8.694;2022-09-21T02:09:28;100667.31;;;7.98;99.32
38716;BME280;24833;49.324;8.694;2022-09-21T02:11:55;100667.59;;;7.95;99.72
38716;BME280;24833;49.324;8.694;2022-09-21T02:14:25;100670.59;;;7.91;99.93
38716;BME280;24833;49.324;8.694;2022-09-21T02:17:12;100673.69;;;7.87;98.89
38716;BME280;24833;49.324;8.694;2022-09-21T02:19:56;100669.69;;;7.83;98.57
38716;BME280;24833;49.324;8.694;2022-09-21T02:25:25;100667.66;;;7.77;99.06
38716;BME280;24833;49.324;8.694;2022-09-21T02:28:04;100664.47;;;7.73;99.25
38716;BME280;24833;49.324;8.694;2022-09-21T02:30:34;100665.63;;;7.71;99.46
38716;BME280;24833;49.324;8.694;2022-09-21T02:33:16;100663.41;;;7.66;98.48
38716;BME280;24833;49.324;8.694;2022-09-21T02:36:26;100665.69;;;7.61;98.54
38716;BME280;24833;49.324;8.694;2022-09-21T02:39:11;100667.69;;;7.59;98.90
38716;BME280;24833;49.324;8.694;2022-09-21T02:44:26;100668.97;;;7.55;99.20
38716;BME280;24833;49.324;8.694;2022-09-21T02:47:08;100664.97;;;7.51;99.46
38716;BME280;24833;49.324;8.694;2022-09-21T02:49:45;100659.25;;;7.46;99.11
38716;BME280;24833;49.324;8.694;2022-09-21T02:52:16;100652.28;;;7.45;99.67
38716;BME280;24833;49.324;8.694;2022-09-21T02:54:48;100659.59;;;7.43;99.44
38716;BME280;24833;49.324;8.694;2022-09-21T02:57:19;100665.19;;;7.40;99.56
38716;BME280;24833;49.324;8.694;2022-09-21T02:59:47;100661.88;;;7.37;99.60
38716;BME280;24833;49.324;8.694;2022-09-21T03:02:15;100661.16;;;7.35;99.94
38716;BME280;24833;49.324;8.694;2022-09-21T03:04:45;100653.50;;;7.32;99.50
38716;BME280;24833;49.324;8.694;2022-09-21T03:07:16;100651.00;;;7.31;99.80
38716;BME280;24833;49.324;8.694;2022-09-21T03:09:43;100646.81;;;7.28;99.51
38716;BME280;24833;49.324;8.694;2022-09-21T03:12:10;100653.00;;;7.29;99.86
38716;BME280;24833;49.324;8.694;2022-09-21T03:14:37;100658.16;;;7.30;100.00
38716;BME280;24833;49.324;8.694;2022-09-21T03:17:04;100657.16;;;7.31;99.83
38716;BME280;24833;49.324;8.694;2022-09-21T03:19:31;100652.69;;;7.32;100.00
38716;BME280;24833;49.324;8.694;2022-09-21T03:21:58;100661.47;;;7.32;100.00
38716;BME280;24833;49.324;8.694;2022-09-21T03:24:25;100665.97;;;7.32;100.00
38716;BME280;24833;49.324;8.694;2022-09-21T03:27:17;100660.97;;;7.29;99.42
38716;BME280;24833;49.324;8.694;2022-09-21T03:29:45;100669.75;;;7.29;99.72
38716;BME280;24833;49.324;8.694;2022-09-21T03:32:12;100670.06;;;7.26;99.90
38716;BME280;24833;49.324;8.694;2022-09-21T03:34:40;100675.38;;;7.26;99.68
38716;BME280;24833;49.324;8.694;2022-09-21T03:37:08;100674.69;;;7.24;99.92
38716;BME280;24833;49.324;8.694;2022-09-21T03:39:35;100678.63;;;7.20;100.00
38716;BME280;24833;49.324;8.694;2022-09-21T03:42:03;100676.97;;;7.19;100.00
38716;BME280;24833;49.324;8.694;2022-09-21T03:44:30;100680.59;;;7.18;100.00
38716;BME280;24833;49.324;8.694;2022-09-21T03:46:57;100679.94;;;7.16;99.97
38716;BME280;24833;49.324;8.694;2022-09-21T03:49:24;100680.22;;;7.13;100.00
38716;BME280;24833;49.324;8.694;2022-09-21T03:54:04;100672.69;;;7.08;99.58
38716;BME280;24833;49.324;8.694;2022-09-21T03:56:31;100682.47;;;7.08;99.58
38716;BME280;24833;49.324;8.694;2022-09-21T03:58:57;100684.47;;;7.06;99.56
38716;BME280;24833;49.324;8.694;2022-09-21T04:01:23;100676.66;;;7.04;99.52
38716;BME280;24833;49.324;8.694;2022-09-21T04:03:50;100677.63;;;7.03;99.47
38716;BME280;24833;49.324;8.694;2022-09-21T04:06:17;100686.44;;;7.04;100.00
38716;BME280;24833;49.324;8.694;2022-09-21T04:08:44;100676.09;;;7.01;99.98
38716;BME280;24833;49.324;8.694;2022-09-21T04:11:13;100681.72;;;6.98;99.77
38716;BME280;24833;49.324;8.694;2022-09-21T04:13:41;100682.72;;;6.97;99.95
38716;BME280;24833;49.324;8.694;2022-09-21T04:16:09;100676.69;;;6.95;99.92
38716;BME280;24833;49.324;8.694;2022-09-21T04:18:37;100674.19;;;6.93;99.98
38716;BME280;24833;49.324;8.694;2022-09-21T04:21:05;100679.66;;;6.92;99.92
38716;BME280;24833;49.324;8.694;2022-09-21T04:23:32;100675.34;;;6.91;99.69
38716;BME280;24833;49.324;8.694;2022-09-21T04:25:59;100674.50;;;6.90;99.95
38716;BME280;24833;49.324;8.694;2022-09-21T04:28:26;100675.34;;;6.91;100.00
38716;BME280;24833;49.324;8.694;2022-09-21T04:30:53;100676.16;;;6.91;100.00
38716;BME280;24833;49.324;8.694;2022-09-21T04:33:21;100684.97;;;6.92;100.00
38716;BME280;24833;49.324;8.694;2022-09-21T04:35:55;100684.28;;;6.90;99.48
38716;BME280;24833;49.324;8.694;2022-09-21T04:38:22;100685.66;;;6.94;100.00
38716;BME280;24833;49.324;8.694;2022-09-21T04:40:56;100681.31;;;6.93;100.00
38716;BME280;24833;49.324;8.694;2022-09-21T04:43:24;100683.69;;;6.96;100.00
38716;BME280;24833;49.324;8.694;2022-09-21T04:45:51;100692.34;;;6.98;100.00
38716;BME280;24833;49.324;8.694;2022-09-21T04:48:18;100692.19;;;6.99;100.00
38716;BME280;24833;49.324;8.694;2022-09-21T04:50:49;100695.50;;;7.01;100.00
38716;BME280;24833;49.324;8.694;2022-09-21T04:53:16;100697.06;;;7.04;100.00
38716;BME280;24833;49.324;8.694;2022-09-21T04:55:44;100697.72;;;7.06;100.00
38716;BME280;24833;49.324;8.694;2022-09-21T04:58:12;100702.22;;;7.05;100.00
38716;BME280;24833;49.324;8.694;2022-09-21T05:00:39;100701.22;;;7.06;100.00
38716;BME280;24833;49.324;8.694;2022-09-21T05:03:06;100704.88;;;7.05;100.00
38716;BME280;24833;49.324;8.694;2022-09-21T05:05:32;100704.88;;;7.05;100.00
38716;BME280;24833;49.324;8.694;2022-09-21T05:08:00;100705.19;;;7.02;99.94
38716;BME280;24833;49.324;8.694;2022-09-21T05:10:27;100709.63;;;7.02;100.00
38716;BME280;24833;49.324;8.694;2022-09-21T05:12:54;100710.63;;;7.01;100.00
38716;BME280;24833;49.324;8.694;2022-09-21T05:15:21;100715.25;;;6.99;99.97
38716;BME280;24833;49.324;8.694;2022-09-21T05:17:47;100713.59;;;6.98;100.00
38716;BME280;24833;49.324;8.694;2022-09-21T05:20:14;100719.19;;;6.95;100.00
38716;BME280;24833;49.324;8.694;2022-09-21T05:22:41;100720.16;;;6.94;100.00
38716;BME280;24833;49.324;8.694;2022-09-21T05:25:09;100727.44;;;6.92;100.00
38716;BME280;24833;49.324;8.694;2022-09-21T05:27:36;100725.06;;;6.89;99.74
38716;BME280;24833;49.324;8.694;2022-09-21T05:30:04;100726.06;;;6.88;99.82
38716;BME280;24833;49.324;8.694;2022-09-21T05:32:57;100725.69;;;6.82;99.25
38716;BME280;24833;49.324;8.694;2022-09-21T05:38:31;100738.25;;;6.80;99.68
38716;BME280;24833;49.324;8.694;2022-09-21T05:40:59;100740.22;;;6.78;99.70
38716;BME280;24833;49.324;8.694;2022-09-21T05:43:27;100743.88;;;6.77;100.00
38716;BME280;24833;49.324;8.694;2022-09-21T05:46:06;100743.31;;;6.74;99.41
38716;BME280;24833;49.324;8.694;2022-09-21T05:48:41;100738.84;;;6.74;99.93
38716;BME280;24833;49.324;8.694;2022-09-21T05:51:48;100744.47;;;6.71;98.97
38716;BME280;24833;49.324;8.694;2022-09-21T05:54:43;100753.25;;;6.72;99.07
38716;BME280;24833;49.324;8.694;2022-09-21T05:57:21;100754.91;;;6.73;100.00
38716;BME280;24833;49.324;8.694;2022-09-21T06:00:19;100761.22;;;6.72;99.14
38716;BME280;24833;49.324;8.694;2022-09-21T06:05:44;100755.59;;;6.75;100.00
38716;BME280;24833;49.324;8.694;2022-09-21T06:08:11;100759.13;;;6.75;100.00
38716;BME280;24833;49.324;8.694;2022-09-21T06:10:37;100751.16;;;6.75;100.00
38716;BME280;24833;49.324;8.694;2022-09-21T06:13:04;100752.81;;;6.76;100.00
38716;BME280;24833;49.324;8.694;2022-09-21T06:15:33;100760.63;;;6.78;100.00
38716;BME280;24833;49.324;8.694;2022-09-21T06:18:05;100761.63;;;6.77;100.00
38716;BME280;24833;49.324;8.694;2022-09-21T06:20:32;100758.97;;;6.77;100.00
38716;BME280;24833;49.324;8.694;2022-09-21T06:23:06;100764.28;;;6.77;99.86
38716;BME280;24833;49.324;8.694;2022-09-21T06:25:33;100765.09;;;6.77;100.00
38716;BME280;24833;49.324;8.694;2022-09-21T06:28:10;100769.59;;;6.77;99.96
38716;BME280;24833;49.324;8.694;2022-09-21T06:30:38;100773.75;;;6.79;100.00
38716;BME280;24833;49.324;8.694;2022-09-21T06:33:07;100772.59;;;6.82;100.00
38716;BME280;24833;49.324;8.694;2022-09-21T06:35:35;100774.84;;;6.87;100.00
38716;BME280;24833;49.324;8.694;2022-09-21T06:38:06;100772.75;;;6.90;100.00
38716;BME280;24833;49.324;8.694;2022-09-21T06:40:35;100775.63;;;6.97;100.00
38716;BME280;24833;49.324;8.694;2022-09-21T06:43:03;100773.34;;;7.02;100.00
38716;BME280;24833;49.324;8.694;2022-09-21T06:45:32;100772.09;;;7.06;100.00
38716;BME280;24833;49.324;8.694;2022-09-21T06:47:59;100777.66;;;7.13;100.00
38716;BME280;24833;49.324;8.694;2022-09-21T06:50:26;100774.41;;;7.19;100.00
38716;BME280;24833;49.324;8.694;2022-09-21T06:52:53;100778.13;;;7.26;100.00
38716;BME280;24833;49.324;8.694;2022-09-21T06:55:20;100775.72;;;7.32;100.00
38716;BME280;24833;49.324;8.694;2022-09-21T06:57:47;100787.41;;;7.40;100.00
38716;BME280;24833;49.324;8.694;2022-09-21T07:00:16;100785.81;;;7.47;100.00
38716;BME280;24833;49.324;8.694;2022-09-21T07:02:44;100780.59;;;7.55;100.00
38716;BME280;24833;49.324;8.694;2022-09-21T07:05:12;100786.97;;;7.62;100.00
38716;BME280;24833;49.324;8.694;2022-09-21T07:07:39;100792.38;;;7.70;100.00
38716;BME280;24833;49.324;8.694;2022-09-21T07:10:07;100790.78;;;7.77;100.00
38716;BME280;24833;49.324;8.694;2022-09-21T07:12:41;100788.19;;;7.85;100.00
38716;BME280;24833;49.324;8.694;2022-09-21T07:15:09;100780.28;;;7.93;100.00
38716;BME280;24833;49.324;8.694;2022-09-21T07:17:38;100781.34;;;8.01;100.00
38716;BME280;24833;49.324;8.694;2022-09-21T07:20:06;100792.03;;;8.09;100.00
38716;BME280;24833;49.324;8.694;2022-09-21T07:22:34;100789.59;;;8.15;100.00
38716;BME280;24833;49.324;8.694;2022-09-21T07:25:04;100787.03;;;8.24;100.00
38716;BME280;24833;49.324;8.694;2022-09-21T07:27:32;100790.56;;;8.32;100.00
38716;BME280;24833;49.324;8.694;2022-09-21T07:29:59;100787.16;;;8.40;100.00
38716;BME280;24833;49.324;8.694;2022-09-21T07:32:26;100786.38;;;8.48;100.00
38716;BME280;24833;49.324;8.694;2022-09-21T07:34:53;100793.44;;;8.57;100.00
38716;BME280;24833;49.324;8.694;2022-09-21T07:37:24;100789.16;;;8.64;100.00
38716;BME280;24833;49.324;8.694;2022-09-21T07:39:51;100793.50;;;8.73;100.00
38716;BME280;24833;49.324;8.694;2022-09-21T07:42:20;100791.72;;;8.82;100.00
38716;BME280;24833;49.324;8.694;2022-09-21T07:44:48;100795.13;;;8.92;100.00
38716;BME280;24833;49.324;8.694;2022-09-21T07:47:16;100798.63;;;9.00;100.00
38716;BME280;24833;49.324;8.694;2022-09-21T07:49:43;100792.38;;;9.10;100.00
38716;BME280;24833;49.324;8.694;2022-09-21T07:52:12;100792.41;;;9.18;100.00
38716;BME280;24833;49.324;8.694;2022-09-21T07:54:41;100787.75;;;9.28;100.00
38716;BME280;24833;49.324;8.694;2022-09-21T07:57:08;100788.47;;;9.38;100.00
38716;BME280;24833;49.324;8.694;2022-09-21T07:59:53;100798.97;;;9.48;100.00
38716;BME280;24833;49.324;8.694;2022-09-21T08:02:23;100790.84;;;9.58;100.00
38716;BME280;24833;49.324;8.694;2022-09-21T08:04:50;100795.84;;;9.69;100.00
38716;BME280;24833;49.324;8.694;2022-09-21T08:07:17;100794.69;;;9.79;100.00
38716;BME280;24833;49.324;8.694;2022-09-21T08:09:44;100787.22;;;9.91;100.00
38716;BME280;24833;49.324;8.694;2022-09-21T08:12:15;100793.91;;;10.03;100.00
38716;BME280;24833;49.324;8.694;2022-09-21T08:14:44;100795.91;;;10.18;100.00
38716;BME280;24833;49.324;8.694;2022-09-21T08:17:12;100796.91;;;10.33;100.00
38716;BME280;24833;49.324;8.694;2022-09-21T08:19:39;100797.22;;;10.46;100.00
38716;BME280;24833;49.324;8.694;2022-09-21T08:22:06;100789.16;;;10.62;100.00
38716;BME280;24833;49.324;8.694;2022-09-21T08:24:33;100799.31;;;10.75;100.00
38716;BME280;24833;49.324;8.694;2022-09-21T08:27:01;100788.09;;;10.88;100.00
38716;BME280;24833;49.324;8.694;2022-09-21T08:29:28;100789.56;;;10.99;100.00
38716;BME280;24833;49.324;8.694;2022-09-21T08:31:56;100789.03;;;11.11;100.00
38716;BME280;24833;49.324;8.694;2022-09-21T08:34:23;100788.47;;;11.24;100.00
38716;BME280;24833;49.324;8.694;2022-09-21T08:36:50;100788.88;;;11.36;100.00
38716;BME280;24833;49.324;8.694;2022-09-21T08:39:21;100784.47;;;11.51;100.00
38716;BME280;24833;49.324;8.694;2022-09-21T08:42:30;100788.38;;;11.63;100.00
38716;BME280;24833;49.324;8.694;2022-09-21T08:45:08;100785.50;;;11.73;100.00
38716;BME280;24833;49.324;8.694;2022-09-21T08:47:48;100785.97;;;11.85;100.00
38716;BME280;24833;49.324;8.694;2022-09-21T08:50:45;100787.84;;;11.99;100.00
38716;BME280;24833;49.324;8.694;2022-09-21T08:53:34;100786.75;;;12.08;100.00
38716;BME280;24833;49.324;8.694;2022-09-21T08:56:02;100779.97;;;12.20;100.00
38716;BME280;24833;49.324;8.694;2022-09-21T08:58:31;100784.22;;;12.30;100.00
38716;BME280;24833;49.324;8.694;2022-09-21T09:06:43;100785.31;;;12.58;100.00
38716;BME280;24833;49.324;8.694;2022-09-21T09:18:51;100782.44;;;13.04;100.00
38716;BME280;24833;49.324;8.694;2022-09-21T09:21:37;100775.94;;;13.13;100.00
38716;BME280;24833;49.324;8.694;2022-09-21T09:24:11;100786.41;;;13.23;100.00
38716;BME280;24833;49.324;8.694;2022-09-21T09:27:11;100773.34;;;13.34;100.00
38716;BME280;24833;49.324;8.694;2022-09-21T09:35:40;100773.66;;;13.61;100.00
38716;BME280;24833;49.324;8.694;2022-09-21T09:38:47;100770.47;;;13.72;100.00
38716;BME280;24833;49.324;8.694;2022-09-21T09:41:36;100765.59;;;13.82;100.00
38716;BME280;24833;49.324;8.694;2022-09-21T09:50:36;100756.13;;;14.08;100.00
38716;BME280;24833;49.324;8.694;2022-09-21T09:53:15;100757.19;;;14.13;100.00
38716;BME280;24833;49.324;8.694;2022-09-21T09:55:46;100759.94;;;14.20;100.00
38716;BME280;24833;49.324;8.694;2022-09-21T10:00:56;100753.00;;;14.32;100.00
38716;BME280;24833;49.324;8.694;2022-09-21T10:03:26;100752.84;;;14.40;100.00
38716;BME280;24833;49.324;8.694;2022-09-21T10:05:54;100752.09;;;14.47;100.00
38716;BME280;24833;49.324;8.694;2022-09-21T10:08:42;100745.34;;;14.57;100.00
38716;BME280;24833;49.324;8.694;2022-09-21T10:11:13;100743.09;;;14.61;100.00
38716;BME280;24833;49.324;8.694;2022-09-21T10:13:42;100745.63;;;14.69;100.00
38716;BME280;24833;49.324;8.694;2022-09-21T10:16:29;100738.66;;;14.81;100.00
38716;BME280;24833;49.324;8.694;2022-09-21T10:18:58;100739.94;;;14.85;100.00
38716;BME280;24833;49.324;8.694;2022-09-21T10:21:39;100741.00;;;14.97;100.00
38716;BME280;24833;49.324;8.694;2022-09-21T10:24:22;100744.38;;;15.06;100.00
38716;BME280;24833;49.324;8.694;2022-09-21T10:26:54;100732.59;;;15.14;100.00
38716;BME280;24833;49.324;8.694;2022-09-21T10:34:22;100712.16;;;15.33;100.00
38716;BME280;24833;49.324;8.694;2022-09-21T10:36:53;100722.94;;;15.39;100.00
38716;BME280;24833;49.324;8.694;2022-09-21T10:39:32;100726.50;;;15.53;100.00
38716;BME280;24833;49.324;8.694;2022-09-21T10:42:13;100720.09;;;15.61;100.00
38716;BME280;24833;49.324;8.694;2022-09-21T10:44:48;100717.81;;;15.64;100.00
38716;BME280;24833;49.324;8.694;2022-09-21T10:47:33;100717.00;;;15.77;100.00
38716;BME280;24833;49.324;8.694;2022-09-21T10:50:19;100717.84;;;15.84;100.00
38716;BME280;24833;49.324;8.694;2022-09-21T10:52:47;100709.59;;;15.92;100.00
38716;BME280;24833;49.324;8.694;2022-09-21T10:55:18;100710.81;;;16.03;100.00
38716;BME280;24833;49.324;8.694;2022-09-21T10:57:48;100711.84;;;16.15;100.00
38716;BME280;24833;49.324;8.694;2022-09-21T11:02:56;100711.81;;;16.42;100.00
38716;BME280;24833;49.324;8.694;2022-09-21T11:05:32;100709.91;;;16.55;100.00
38716;BME280;24833;49.324;8.694;2022-09-21T11:08:17;100717.78;;;16.70;100.00
38716;BME280;24833;49.324;8.694;2022-09-21T11:13:53;100710.22;;;16.99;100.00
38716;BME280;24833;49.324;8.694;2022-09-21T11:17:02;100704.50;;;17.20;100.00
38716;BME280;24833;49.324;8.694;2022-09-21T11:22:10;100699.84;;;17.34;100.00
38716;BME280;24833;49.324;8.694;2022-09-21T11:25:01;100695.88;;;17.36;100.00
38716;BME280;24833;49.324;8.694;2022-09-21T11:27:36;100695.66;;;17.38;100.00
38716;BME280;24833;49.324;8.694;2022-09-21T11:30:17;100697.06;;;17.47;100.00
38716;BME280;24833;49.324;8.694;2022-09-21T11:36:02;100698.69;;;17.55;100.00
38716;BME280;24833;49.324;8.694;2022-09-21T11:38:58;100691.94;;;17.64;100.00
38716;BME280;24833;49.324;8.694;2022-09-21T11:41:54;100699.16;;;17.77;100.00
38716;BME280;24833;49.324;8.694;2022-09-21T11:56:25;100669.78;;;17.87;100.00
38716;BME280;24833;49.324;8.694;2022-09-21T12:05:05;100682.13;;;18.01;100.00
38716;BME280;24833;49.324;8.694;2022-09-21T12:08:00;100675.84;;;18.07;99.47
38716;BME280;24833;49.324;8.694;2022-09-21T12:17:08;100665.13;;;18.19;100.00
38716;BME280;24833;49.324;8.694;2022-09-21T12:22:30;100658.66;;;18.20;98.03
38716;BME280;24833;49.324;8.694;2022-09-21T12:25:15;100657.16;;;18.24;98.64
38716;BME280;24833;49.324;8.694;2022-09-21T12:27:58;100658.13;;;18.30;99.60
38716;BME280;24833;49.324;8.694;2022-09-21T12:30:28;100656.50;;;18.29;97.34
38716;BME280;24833;49.324;8.694;2022-09-21T12:33:24;100642.72;;;18.30;98.14
38716;BME280;24833;49.324;8.694;2022-09-21T12:39:02;100643.72;;;18.36;98.81
38716;BME280;24833;49.324;8.694;2022-09-21T12:41:50;100642.66;;;18.37;98.73
38716;BME280;24833;49.324;8.694;2022-09-21T12:45:03;100640.47;;;18.45;99.84
38716;BME280;24833;49.324;8.694;2022-09-21T12:48:04;100652.00;;;18.59;100.00
38716;BME280;24833;49.324;8.694;2022-09-21T12:50:54;100643.59;;;18.67;100.00
38716;BME280;24833;49.324;8.694;2022-09-21T12:53:26;100642.06;;;18.71;99.70
38716;BME280;24833;49.324;8.694;2022-09-21T13:02:21;100638.28;;;18.91;98.28
38716;BME280;24833;49.324;8.694;2022-09-21T13:08:31;100628.94;;;18.75;94.74
38716;BME280;24833;49.324;8.694;2022-09-21T13:11:04;100633.59;;;18.68;94.77
38716;BME280;24833;49.324;8.694;2022-09-21T13:13:55;100618.41;;;18.67;96.16
38716;BME280;24833;49.324;8.694;2022-09-21T13:16:38;100621.28;;;18.65;97.59
38716;BME280;24833;49.324;8.694;2022-09-21T13:21:39;100618.78;;;18.70;95.71
38716;BME280;24833;49.324;8.694;2022-09-21T13:24:25;100629.28;;;18.78;97.20
38716;BME280;24833;49.324;8.694;2022-09-21T13:26:56;100629.59;;;18.70;92.15
38716;BME280;24833;49.324;8.694;2022-09-21T13:29:30;100626.44;;;18.73;96.35
38716;BME280;24833;49.324;8.694;2022-09-21T13:34:39;100612.00;;;18.61;93.84
38716;BME280;24833;49.324;8.694;2022-09-21T13:47:42;100609.63;;;18.53;94.86
38716;BME280;24833;49.324;8.694;2022-09-21T13:50:24;100604.13;;;18.60;96.90
38716;BME280;24833;49.324;8.694;2022-09-21T13:52:56;100597.81;;;18.66;95.71
38716;BME280;24833;49.324;8.694;2022-09-21T13:55:36;100603.50;;;18.76;96.94
38716;BME280;24833;49.324;8.694;2022-09-21T13:58:39;100601.78;;;18.82;97.38
38716;BME280;24833;49.324;8.694;2022-09-21T14:01:19;100598.91;;;18.76;95.59
38716;BME280;24833;49.324;8.694;2022-09-21T14:04:30;100595.25;;;18.71;96.01
38716;BME280;24833;49.324;8.694;2022-09-21T14:07:05;100595.28;;;18.64;95.33
38716;BME280;24833;49.324;8.694;2022-09-21T14:09:49;100587.59;;;18.68;95.38
38716;BME280;24833;49.324;8.694;2022-09-21T14:12:22;100594.41;;;18.70;93.85
38716;BME280;24833;49.324;8.694;2022-09-21T14:17:42;100588.56;;;18.73;92.05
38716;BME280;24833;49.324;8.694;2022-09-21T14:20:32;100583.88;;;18.81;94.26
38716;BME280;24833;49.324;8.694;2022-09-21T14:25:55;100578.72;;;18.91;93.91
38716;BME280;24833;49.324;8.694;2022-09-21T14:28:40;100574.41;;;19.01;93.69
38716;BME280;24833;49.324;8.694;2022-09-21T14:31:33;100573.63;;;19.13;95.66
38716;BME280;24833;49.324;8.694;2022-09-21T14:34:02;100570.69;;;19.14;94.64
38716;BME280;24833;49.324;8.694;2022-09-21T14:36:42;100583.53;;;19.30;94.55
38716;BME280;24833;49.324;8.694;2022-09-21T14:39:29;100581.94;;;19.53;95.73
38716;BME280;24833;49.324;8.694;2022-09-21T14:42:22;100572.88;;;19.59;94.54
38716;BME280;24833;49.324;8.694;2022-09-21T14:44:49;100575.97;;;19.74;94.27
38716;BME280;24833;49.324;8.694;2022-09-21T14:50:15;100569.81;;;20.02;91.30
38716;BME280;24833;49.324;8.694;2022-09-21T15:11:09;100557.47;;;20.35;95.12
38716;BME280;24833;49.324;8.694;2022-09-21T15:16:43;100544.06;;;20.17;92.60
38716;BME280;24833;49.324;8.694;2022-09-21T15:22:08;100544.84;;;19.89;87.54
38716;BME280;24833;49.324;8.694;2022-09-21T15:24:35;100538.50;;;19.59;88.16
38716;BME280;24833;49.324;8.694;2022-09-21T15:27:14;100542.94;;;19.54;90.51
38716;BME280;24833;49.324;8.694;2022-09-21T15:29:47;100546.94;;;19.40;89.75
38716;BME280;24833;49.324;8.694;2022-09-21T15:32:40;100555.91;;;19.40;89.18
38716;BME280;24833;49.324;8.694;2022-09-21T15:35:23;100553.75;;;19.30;90.07
38716;BME280;24833;49.324;8.694;2022-09-21T15:37:51;100540.06;;;19.14;88.74
38716;BME280;24833;49.324;8.694;2022-09-21T15:40:24;100547.25;;;19.08;90.63
38716;BME280;24833;49.324;8.694;2022-09-21T15:45:54;100541.22;;;18.94;90.97
38716;BME280;24833;49.324;8.694;2022-09-21T15:53:53;100540.78;;;18.67;90.14
38716;BME280;24833;49.324;8.694;2022-09-21T15:56:26;100548.72;;;18.62;90.52
38716;BME280;24833;49.324;8.694;2022-09-21T15:59:02;100544.22;;;18.56;90.15
38716;BME280;24833;49.324;8.694;2022-09-21T16:01:44;100544.31;;;18.49;89.60
38716;BME280;24833;49.324;8.694;2022-09-21T16:04:18;100536.94;;;18.38;87.93
38716;BME280;24833;49.324;8.694;2022-09-21T16:07:04;100537.97;;;18.26;89.92
38716;BME280;24833;49.324;8.694;2022-09-21T16:09:43;100540.38;;;18.15;89.37
38716;BME280;24833;49.324;8.694;2022-09-21T16:15:24;100548.47;;;17.97;88.67
38716;BME280;24833;49.324;8.694;2022-09-21T16:18:03;100544.66;;;17.86;89.85
38716;BME280;24833;49.324;8.694;2022-09-21T16:20:45;100549.72;;;17.76;90.17
38716;BME280;24833;49.324;8.694;2022-09-21T16:23:20;100551.41;;;17.70;90.07
38716;BME280;24833;49.324;8.694;2022-09-21T16:25:55;100552.69;;;17.68;89.42